createdAt,value
2024-04-30T05:00:58.701Z,716.00
2024-04-30T05:01:58.534Z,732.00
2024-04-30T05:02:58.467Z,748.00
2024-04-30T05:03:58.476Z,768.00
2024-04-30T05:04:58.517Z,780.00
2024-04-30T05:05:58.469Z,792.00
2024-04-30T05:07:00.024Z,816.00
2024-04-30T05:07:58.440Z,828.00
2024-04-30T05:08:58.447Z,844.00
2024-04-30T05:09:58.482Z,856.00
2024-04-30T05:10:58.394Z,864.00
2024-04-30T05:12:03.503Z,892.00
2024-04-30T05:12:58.341Z,904.00
2024-04-30T05:13:58.343Z,932.00
2024-04-30T05:14:58.339Z,928.00
2024-04-30T05:15:58.348Z,960.00
2024-04-30T05:16:58.375Z,964.00
2024-04-30T05:17:58.332Z,996.00
2024-04-30T05:18:58.271Z,1004.00
2024-04-30T05:19:58.348Z,1028.00
2024-04-30T05:20:58.247Z,1052.00
2024-04-30T05:21:58.250Z,1076.00
2024-04-30T05:23:03.313Z,1096.00
2024-04-30T05:23:58.216Z,1120.00
2024-04-30T05:24:58.203Z,1132.00
2024-04-30T05:25:58.256Z,1156.00
2024-04-30T05:26:58.213Z,1196.00
2024-04-30T05:27:58.198Z,1224.00
2024-04-30T05:28:58.184Z,1252.00
2024-04-30T05:29:58.401Z,1312.00
2024-04-30T05:30:58.130Z,1388.00
2024-04-30T05:31:58.126Z,1484.00
2024-04-30T05:32:58.208Z,1444.00
2024-04-30T05:34:03.241Z,1424.00
2024-04-30T05:34:58.130Z,1436.00
2024-04-30T05:35:58.127Z,1428.00
2024-04-30T05:36:58.131Z,1392.00
2024-04-30T05:37:58.107Z,1392.00
2024-04-30T05:39:01.127Z,1388.00
2024-04-30T05:39:58.055Z,1436.00
2024-04-30T05:40:58.048Z,1440.00
2024-04-30T05:41:58.042Z,1472.00
2024-04-30T05:42:58.035Z,1568.00
2024-04-30T05:43:58.057Z,1736.00
2024-04-30T05:45:03.012Z,1848.00
2024-04-30T05:45:58.011Z,1764.00
2024-04-30T05:46:58.026Z,1704.00
2024-04-30T05:47:58.005Z,1784.00
2024-04-30T05:48:57.989Z,2068.00
2024-04-30T05:49:57.970Z,2084.00
2024-04-30T05:50:57.922Z,2132.00
2024-04-30T05:51:57.916Z,1968.00
2024-04-30T05:52:57.909Z,1864.00
2024-04-30T05:53:57.911Z,1908.00
2024-04-30T05:54:57.926Z,2124.00
2024-04-30T05:56:02.899Z,2228.00
2024-04-30T05:56:57.894Z,2264.00
2024-04-30T05:57:57.909Z,2180.00
2024-04-30T05:58:57.830Z,2004.00
2024-04-30T05:59:57.837Z,2108.00
2024-04-30T06:00:57.881Z,2384.00
2024-04-30T06:01:57.870Z,2576.00
2024-04-30T06:02:59.090Z,2616.00
2024-04-30T06:03:57.874Z,2440.00
2024-04-30T06:04:57.860Z,2192.00
2024-04-30T06:05:57.765Z,2584.00
2024-04-30T06:07:02.832Z,2508.00
2024-04-30T06:07:57.729Z,2656.00
2024-04-30T06:08:57.738Z,2520.00
2024-04-30T06:09:57.701Z,2340.00
2024-04-30T06:10:57.785Z,2128.00
2024-04-30T06:11:57.676Z,2164.00
2024-04-30T06:12:57.685Z,2436.00
2024-04-30T06:13:57.647Z,2708.00
2024-04-30T06:14:57.656Z,3000.00
2024-04-30T06:15:57.640Z,3024.00
2024-04-30T06:16:57.615Z,2696.00
2024-04-30T06:18:02.986Z,3000.00
2024-04-30T06:18:57.691Z,3272.00
2024-04-30T06:19:57.630Z,3632.00
2024-04-30T06:20:57.571Z,4084.00
2024-04-30T06:21:57.619Z,4088.00
2024-04-30T06:22:57.545Z,4448.00
2024-04-30T06:23:57.549Z,4308.00
2024-04-30T06:24:57.522Z,4104.00
2024-04-30T06:25:57.532Z,4304.00
2024-04-30T06:26:57.500Z,4884.00
2024-04-30T06:27:57.482Z,4472.00
2024-04-30T06:29:02.497Z,3612.00
2024-04-30T06:29:57.491Z,3168.00
2024-04-30T06:30:57.489Z,3368.00
2024-04-30T06:31:57.447Z,3296.00
2024-04-30T06:32:57.508Z,3368.00
2024-04-30T06:33:57.485Z,3172.00
2024-04-30T06:34:57.453Z,3252.00
2024-04-30T06:35:57.407Z,3348.00
2024-04-30T06:36:57.441Z,3828.00
2024-04-30T06:37:57.388Z,3736.00
2024-04-30T06:38:57.364Z,3156.00
2024-04-30T06:40:02.507Z,2828.00
2024-04-30T06:40:57.429Z,2664.00
2024-04-30T06:41:57.334Z,2720.00
2024-04-30T06:42:57.340Z,2972.00
2024-04-30T06:43:57.325Z,3396.00
2024-04-30T06:44:57.295Z,3860.00
2024-04-30T06:45:57.286Z,4032.00
2024-04-30T06:46:57.268Z,4380.00
2024-04-30T06:47:57.408Z,4456.00
2024-04-30T06:48:57.254Z,3508.00
2024-04-30T06:49:57.270Z,2788.00
2024-04-30T06:51:02.257Z,2784.00
2024-04-30T06:51:57.217Z,2712.00
2024-04-30T06:52:57.226Z,2684.00
2024-04-30T06:53:57.209Z,2732.00
2024-04-30T06:54:57.173Z,3052.00
2024-04-30T06:55:57.167Z,3012.00
2024-04-30T06:56:57.157Z,2780.00
2024-04-30T06:57:57.154Z,3392.00
2024-04-30T06:58:57.157Z,3216.00
2024-04-30T06:59:57.127Z,2740.00
2024-04-30T07:00:57.137Z,2952.00
2024-04-30T07:02:02.166Z,3436.00
2024-04-30T07:02:57.133Z,3844.00
2024-04-30T07:03:57.134Z,4416.00
2024-04-30T07:04:57.122Z,5044.00
2024-04-30T07:05:57.084Z,3404.00
2024-04-30T07:06:57.067Z,3296.00
2024-04-30T07:07:57.498Z,3400.00
2024-04-30T07:08:57.041Z,3156.00
2024-04-30T07:09:57.023Z,2844.00
2024-04-30T07:10:59.806Z,2712.00
2024-04-30T07:11:57.028Z,2696.00
2024-04-30T07:13:02.156Z,2720.00
2024-04-30T07:13:56.963Z,2728.00
2024-04-30T07:14:56.986Z,2732.00
2024-04-30T07:15:56.947Z,2760.00
2024-04-30T07:17:03.188Z,2828.00
2024-04-30T07:17:58.097Z,2932.00
2024-04-30T07:18:56.909Z,3016.00
2024-04-30T07:19:56.896Z,3260.00
2024-04-30T07:20:56.935Z,3556.00
2024-04-30T07:21:56.901Z,3988.00
2024-04-30T07:22:56.894Z,5068.00
2024-04-30T07:24:01.883Z,5412.00
2024-04-30T07:24:56.851Z,4388.00
2024-04-30T07:25:56.864Z,3448.00
2024-04-30T07:26:56.848Z,3608.00
2024-04-30T07:27:56.863Z,4040.00
2024-04-30T07:28:56.793Z,3556.00
2024-04-30T07:29:56.797Z,3600.00
2024-04-30T07:30:56.794Z,3908.00
2024-04-30T07:31:56.911Z,4948.00
2024-04-30T07:32:56.820Z,5744.00
2024-04-30T07:33:56.756Z,6212.00
2024-04-30T07:35:01.880Z,7260.00
2024-04-30T07:35:56.720Z,5656.00
2024-04-30T07:36:56.735Z,4040.00
2024-04-30T07:37:56.699Z,3664.00
2024-04-30T07:38:56.692Z,3172.00
2024-04-30T07:39:56.697Z,3112.00
2024-04-30T07:40:56.664Z,3208.00
2024-04-30T07:41:56.660Z,3340.00
2024-04-30T07:42:56.639Z,3316.00
2024-04-30T07:43:56.644Z,3240.00
2024-04-30T07:44:56.623Z,3296.00
2024-04-30T07:46:01.639Z,3564.00
2024-04-30T07:46:56.620Z,4520.00
2024-04-30T07:47:56.638Z,4512.00
2024-04-30T07:48:56.592Z,4032.00
2024-04-30T07:49:56.732Z,3900.00
2024-04-30T07:50:56.540Z,3588.00
2024-04-30T07:51:56.597Z,3756.00
2024-04-30T07:52:56.548Z,4044.00
2024-04-30T07:53:56.522Z,3708.00
2024-04-30T07:54:59.309Z,3380.00
2024-04-30T07:55:56.519Z,3384.00
2024-04-30T07:57:01.533Z,3484.00
2024-04-30T07:57:56.486Z,3428.00
2024-04-30T07:58:56.824Z,3356.00
2024-04-30T07:59:56.455Z,3396.00
2024-04-30T08:00:56.504Z,3460.00
2024-04-30T08:01:56.504Z,3588.00
2024-04-30T08:02:56.524Z,3604.00
2024-04-30T08:03:56.463Z,4012.00
2024-04-30T08:04:56.390Z,4292.00
2024-04-30T08:05:58.594Z,4116.00
2024-04-30T08:06:56.441Z,4448.00
2024-04-30T08:08:01.376Z,5432.00
2024-04-30T08:08:56.439Z,5136.00
2024-04-30T08:09:56.369Z,5132.00
2024-04-30T08:10:56.404Z,5296.00
2024-04-30T08:11:56.347Z,5864.00
2024-04-30T08:13:01.476Z,5500.00
2024-04-30T08:13:57.292Z,4200.00
2024-04-30T08:15:01.313Z,4124.00
2024-04-30T08:15:57.467Z,4448.00
2024-04-30T08:16:56.359Z,5960.00
2024-04-30T08:17:56.369Z,6512.00
2024-04-30T08:19:01.260Z,4608.00
2024-04-30T08:19:56.485Z,4200.00
2024-04-30T08:20:56.247Z,3980.00
2024-04-30T08:21:56.368Z,3844.00
2024-04-30T08:22:56.188Z,3880.00
2024-04-30T08:23:56.185Z,3928.00
2024-04-30T08:24:56.287Z,3852.00
2024-04-30T08:25:56.167Z,3908.00
2024-04-30T08:26:56.146Z,4072.00
2024-04-30T08:27:56.141Z,4636.00
2024-04-30T08:28:56.120Z,4528.00
2024-04-30T08:30:01.238Z,4516.00
2024-04-30T08:30:56.136Z,6248.00
2024-04-30T08:31:56.127Z,6200.00
2024-04-30T08:32:56.109Z,4824.00
2024-04-30T08:33:56.184Z,4792.00
2024-04-30T08:34:56.085Z,5504.00
2024-04-30T08:35:56.064Z,5228.00
2024-04-30T08:36:56.222Z,4916.00
2024-04-30T08:38:00.914Z,5596.00
2024-04-30T08:38:55.994Z,4928.00
2024-04-30T08:39:56.030Z,4656.00
2024-04-30T08:41:01.002Z,4636.00
2024-04-30T08:41:55.973Z,4612.00
2024-04-30T08:42:55.961Z,4604.00
2024-04-30T08:43:55.945Z,4596.00
2024-04-30T08:44:57.879Z,4584.00
2024-04-30T08:45:55.928Z,4696.00
2024-04-30T08:46:55.997Z,5908.00
2024-04-30T08:47:55.952Z,5516.00
2024-04-30T08:48:55.917Z,5172.00
2024-04-30T08:50:01.326Z,5892.00
2024-04-30T08:50:55.959Z,8320.00
2024-04-30T08:52:00.884Z,13736.00
2024-04-30T08:52:55.894Z,11632.00
2024-04-30T08:53:55.835Z,18816.00
2024-04-30T08:54:55.848Z,37600.00
2024-04-30T08:55:55.804Z,38016.00
2024-04-30T08:56:55.789Z,16160.00
2024-04-30T08:57:55.788Z,6308.00
2024-04-30T08:58:55.803Z,5620.00
2024-04-30T08:59:55.768Z,4796.00
2024-04-30T09:00:55.849Z,4656.00
2024-04-30T09:01:55.841Z,4812.00
2024-04-30T09:03:00.808Z,5124.00
2024-04-30T09:03:55.812Z,9464.00
2024-04-30T09:04:55.751Z,27680.00
2024-04-30T09:05:55.711Z,19200.00
2024-04-30T09:06:55.701Z,10444.00
2024-04-30T09:07:55.671Z,5020.00
2024-04-30T09:08:55.665Z,4744.00
2024-04-30T09:09:55.651Z,4532.00
2024-04-30T09:10:55.704Z,4508.00
2024-04-30T09:11:55.746Z,4524.00
2024-04-30T09:12:55.648Z,4580.00
2024-04-30T09:14:00.639Z,4936.00
2024-04-30T09:14:55.633Z,8344.00
2024-04-30T09:15:55.629Z,5848.00
2024-04-30T09:16:55.685Z,5812.00
2024-04-30T09:17:55.673Z,6092.00
2024-04-30T09:18:55.580Z,4752.00
2024-04-30T09:19:55.557Z,4820.00
2024-04-30T09:20:59.187Z,5036.00
2024-04-30T09:21:55.541Z,5844.00
2024-04-30T09:22:55.543Z,7908.00
2024-04-30T09:23:55.502Z,7644.00
2024-04-30T09:25:00.511Z,9020.00
2024-04-30T09:25:55.481Z,7460.00
2024-04-30T09:26:55.454Z,8948.00
2024-04-30T09:27:55.485Z,18720.00
2024-04-30T09:28:55.470Z,19168.00
2024-04-30T09:29:55.433Z,22592.00
2024-04-30T09:30:55.436Z,25504.00
2024-04-30T09:31:55.417Z,33696.00
2024-04-30T09:32:55.499Z,27776.00
2024-04-30T09:33:55.426Z,18496.00
2024-04-30T09:34:55.384Z,15936.00
2024-04-30T09:36:04.178Z,13620.00
2024-04-30T09:36:56.383Z,12112.00
2024-04-30T09:37:55.342Z,7056.00
2024-04-30T09:38:55.372Z,6668.00
2024-04-30T09:39:55.309Z,10304.00
2024-04-30T09:40:55.306Z,22080.00
2024-04-30T09:41:55.327Z,14148.00
2024-04-30T09:42:55.297Z,12300.00
2024-04-30T09:43:55.297Z,19552.00
2024-04-30T09:44:55.479Z,20096.00
2024-04-30T09:45:55.283Z,20544.00
2024-04-30T09:47:00.303Z,18176.00
2024-04-30T09:47:55.292Z,15392.00
2024-04-30T09:48:55.211Z,23584.00
2024-04-30T09:49:55.362Z,28480.00
2024-04-30T09:50:55.199Z,23712.00
2024-04-30T09:51:55.207Z,10172.00
2024-04-30T09:52:55.198Z,8128.00
2024-04-30T09:53:55.208Z,18848.00
2024-04-30T09:54:55.176Z,26080.00
2024-04-30T09:55:55.147Z,13228.00
2024-04-30T09:56:55.183Z,12788.00
2024-04-30T09:58:00.158Z,15328.00
2024-04-30T09:58:55.103Z,17632.00
2024-04-30T09:59:55.156Z,22368.00
2024-04-30T10:00:55.116Z,14652.00
2024-04-30T10:01:55.250Z,9284.00
2024-04-30T10:02:55.084Z,12480.00
2024-04-30T10:03:55.098Z,12844.00
2024-04-30T10:04:55.171Z,8592.00
2024-04-30T10:05:55.033Z,8048.00
2024-04-30T10:06:55.040Z,6836.00
2024-04-30T10:07:55.027Z,10952.00
2024-04-30T10:09:00.042Z,23040.00
2024-04-30T10:09:55.014Z,20992.00
2024-04-30T10:10:55.123Z,6128.00
2024-04-30T10:11:54.964Z,12540.00
2024-04-30T10:12:54.947Z,21504.00
2024-04-30T10:13:55.059Z,23840.00
2024-04-30T10:14:54.933Z,31712.00
2024-04-30T10:15:54.915Z,35616.00
2024-04-30T10:16:54.972Z,31488.00
2024-04-30T10:17:54.898Z,43360.00
2024-04-30T10:18:54.887Z,39040.00
2024-04-30T10:19:54.871Z,22016.00
2024-04-30T10:20:54.886Z,11488.00
2024-04-30T10:21:59.877Z,10480.00
2024-04-30T10:22:54.876Z,11984.00
2024-04-30T10:23:54.849Z,18976.00
2024-04-30T10:24:54.840Z,8340.00
2024-04-30T10:25:54.808Z,8548.00
2024-04-30T10:26:54.829Z,10032.00
2024-04-30T10:27:54.819Z,15356.00
2024-04-30T10:28:54.784Z,18112.00
2024-04-30T10:29:54.766Z,14876.00
2024-04-30T10:30:54.752Z,39136.00
2024-04-30T10:31:57.001Z,56608.00
2024-04-30T10:32:54.862Z,54720.00
2024-04-30T10:33:54.749Z,43008.00
2024-04-30T10:34:59.764Z,50048.00
2024-04-30T10:35:54.725Z,54688.00
2024-04-30T10:36:54.724Z,24896.00
2024-04-30T10:37:54.725Z,15212.00
2024-04-30T10:38:54.656Z,12556.00
2024-04-30T10:39:54.654Z,10520.00
2024-04-30T10:40:54.652Z,11040.00
2024-04-30T10:41:54.645Z,13388.00
2024-04-30T10:42:54.622Z,27392.00
2024-04-30T10:43:56.731Z,34304.00
2024-04-30T10:44:54.594Z,43360.00
2024-04-30T10:45:54.621Z,24928.00
2024-04-30T10:46:54.570Z,11784.00
2024-04-30T10:47:59.725Z,11508.00
2024-04-30T10:48:54.610Z,20096.00
2024-04-30T10:50:01.063Z,27680.00
2024-04-30T10:50:54.530Z,16928.00
2024-04-30T10:51:54.530Z,8160.00
2024-04-30T10:52:54.514Z,8384.00
2024-04-30T10:53:54.510Z,8940.00
2024-04-30T10:54:54.520Z,8348.00
2024-04-30T10:55:56.966Z,15904.00
2024-04-30T10:56:54.466Z,19904.00
2024-04-30T10:57:54.464Z,28672.00
2024-04-30T10:58:54.477Z,11424.00
2024-04-30T10:59:54.435Z,14260.00
2024-04-30T11:00:59.493Z,19904.00
2024-04-30T11:01:54.438Z,16448.00
2024-04-30T11:02:54.440Z,10080.00
2024-04-30T11:03:54.382Z,9356.00
2024-04-30T11:04:54.449Z,10212.00
2024-04-30T11:05:54.366Z,10552.00
2024-04-30T11:06:54.406Z,14452.00
2024-04-30T11:07:54.345Z,18912.00
2024-04-30T11:08:54.357Z,15648.00
2024-04-30T11:09:54.335Z,10644.00
2024-04-30T11:10:54.387Z,10212.00
2024-04-30T11:11:54.285Z,10580.00
2024-04-30T11:12:54.277Z,11368.00
2024-04-30T11:14:00.876Z,34464.00
2024-04-30T11:14:54.282Z,22688.00
2024-04-30T11:16:03.518Z,17056.00
2024-04-30T11:16:54.280Z,20512.00
2024-04-30T11:17:54.307Z,14924.00
2024-04-30T11:18:54.265Z,15616.00
2024-04-30T11:19:54.254Z,22304.00
2024-04-30T11:20:54.206Z,21792.00
2024-04-30T11:21:54.225Z,21216.00
2024-04-30T11:22:54.206Z,12672.00
2024-04-30T11:23:54.174Z,11504.00
2024-04-30T11:24:54.180Z,12124.00
2024-04-30T11:25:54.166Z,17376.00
2024-04-30T11:26:59.167Z,21760.00
2024-04-30T11:27:54.152Z,20288.00
2024-04-30T11:29:08.723Z,18048.00
2024-04-30T11:29:54.091Z,11876.00
2024-04-30T11:30:54.120Z,10160.00
2024-04-30T11:31:54.098Z,11120.00
2024-04-30T11:32:54.197Z,14332.00
2024-04-30T11:33:54.063Z,19232.00
2024-04-30T11:34:54.062Z,19136.00
2024-04-30T11:35:54.022Z,13532.00
2024-04-30T11:36:54.048Z,11396.00
2024-04-30T11:37:54.116Z,11944.00
2024-04-30T11:38:53.985Z,16416.00
2024-04-30T11:39:59.000Z,25984.00
2024-04-30T11:40:53.992Z,32128.00
2024-04-30T11:42:01.813Z,43520.00
2024-04-30T11:42:54.980Z,57248.00
2024-04-30T11:43:53.943Z,62016.00
2024-04-30T11:44:53.936Z,60928.00
2024-04-30T11:45:54.084Z,83072.00
2024-04-30T11:46:53.923Z,83584.00
2024-04-30T11:47:53.966Z,80672.00
2024-04-30T11:48:53.942Z,65216.00
2024-04-30T11:49:53.872Z,37440.00
2024-04-30T11:50:53.858Z,39680.00
2024-04-30T11:51:53.839Z,47328.00
2024-04-30T11:52:59.005Z,37696.00
2024-04-30T11:53:53.876Z,40896.00
2024-04-30T11:54:53.841Z,40160.00
2024-04-30T11:55:53.807Z,64704.00
2024-04-30T11:56:53.797Z,47648.00
2024-04-30T11:57:53.794Z,31488.00
2024-04-30T11:58:53.791Z,92512.00
2024-04-30T11:59:53.784Z,92864.00
2024-04-30T12:00:53.749Z,94976.00
2024-04-30T12:01:53.877Z,91616.00
2024-04-30T12:02:53.780Z,87456.00
2024-04-30T12:03:53.737Z,85472.00
2024-04-30T12:04:53.847Z,75328.00
2024-04-30T12:05:58.734Z,64928.00
2024-04-30T12:06:53.732Z,63200.00
2024-04-30T12:07:53.759Z,65056.00
2024-04-30T12:08:53.674Z,73984.00
2024-04-30T12:09:53.651Z,81536.00
2024-04-30T12:10:53.810Z,84576.00
2024-04-30T12:11:53.630Z,83360.00
2024-04-30T12:12:53.628Z,81760.00
2024-04-30T12:13:53.659Z,79712.00
2024-04-30T12:14:53.601Z,79008.00
2024-04-30T12:15:53.608Z,87040.00
2024-04-30T12:16:53.675Z,83488.00
2024-04-30T12:17:53.797Z,78688.00
2024-04-30T12:18:58.609Z,73408.00
2024-04-30T12:19:53.582Z,61376.00
2024-04-30T12:20:53.552Z,62496.00
2024-04-30T12:21:53.529Z,69568.00
2024-04-30T12:22:53.573Z,79456.00
2024-04-30T12:23:53.522Z,85184.00
2024-04-30T12:24:53.485Z,83552.00
2024-04-30T12:25:53.476Z,81344.00
2024-04-30T12:26:53.465Z,79040.00
2024-04-30T12:27:53.473Z,83040.00
2024-04-30T12:28:53.474Z,76416.00
2024-04-30T12:29:58.475Z,76256.00
2024-04-30T12:30:53.463Z,71232.00
2024-04-30T12:31:53.552Z,38144.00
2024-04-30T12:32:53.432Z,10112.00
2024-04-30T12:33:53.428Z,8220.00
2024-04-30T12:34:53.409Z,7500.00
2024-04-30T12:35:53.373Z,7184.00
2024-04-30T12:36:53.375Z,7060.00
2024-04-30T12:37:53.394Z,6816.00
2024-04-30T12:38:53.353Z,6548.00
2024-04-30T12:39:53.340Z,6436.00
2024-04-30T12:40:58.349Z,6324.00
2024-04-30T12:41:53.328Z,6232.00
2024-04-30T12:42:53.321Z,6020.00
2024-04-30T12:43:53.300Z,5780.00
2024-04-30T12:44:53.279Z,5720.00
2024-04-30T12:45:53.285Z,5700.00
2024-04-30T12:46:53.345Z,5652.00
2024-04-30T12:47:53.330Z,5628.00
2024-04-30T12:48:53.239Z,5588.00
2024-04-30T12:49:53.284Z,5564.00
2024-04-30T12:50:53.264Z,5584.00
2024-04-30T12:51:58.346Z,5684.00
2024-04-30T12:52:53.244Z,5680.00
2024-04-30T12:53:53.184Z,5480.00
2024-04-30T12:54:53.197Z,5320.00
2024-04-30T12:55:53.229Z,4976.00
2024-04-30T12:56:53.186Z,4668.00
2024-04-30T12:57:53.137Z,4600.00
2024-04-30T12:58:53.279Z,4504.00
2024-04-30T12:59:53.117Z,4412.00
2024-04-30T13:00:53.283Z,4276.00
2024-04-30T13:01:53.179Z,4216.00
2024-04-30T13:02:58.174Z,4196.00
2024-04-30T13:03:53.118Z,4112.00
2024-04-30T13:04:53.171Z,3964.00
2024-04-30T13:05:53.066Z,3904.00
2024-04-30T13:06:53.051Z,3836.00
2024-04-30T13:07:53.036Z,3688.00
2024-04-30T13:08:53.060Z,3596.00
2024-04-30T13:09:53.022Z,3664.00
2024-04-30T13:10:53.189Z,3584.00
2024-04-30T13:11:53.019Z,3556.00
2024-04-30T13:12:52.989Z,3544.00
2024-04-30T13:13:52.991Z,3556.00
2024-04-30T13:14:52.953Z,3536.00
2024-04-30T13:15:57.995Z,3592.00
2024-04-30T13:16:52.994Z,3568.00
2024-04-30T13:17:53.007Z,3600.00
2024-04-30T13:18:52.938Z,3552.00
2024-04-30T13:19:53.009Z,3448.00
2024-04-30T13:20:52.933Z,3392.00
2024-04-30T13:21:52.866Z,3360.00
2024-04-30T13:22:52.890Z,3380.00
2024-04-30T13:23:52.846Z,3400.00
2024-04-30T13:24:52.868Z,3436.00
2024-04-30T13:25:52.866Z,3488.00
2024-04-30T13:26:52.808Z,3536.00
2024-04-30T13:27:52.818Z,3552.00
2024-04-30T13:28:57.815Z,3624.00
2024-04-30T13:29:52.837Z,3644.00
2024-04-30T13:30:52.827Z,3640.00
2024-04-30T13:31:52.786Z,3672.00
2024-04-30T13:32:52.883Z,3712.00
2024-04-30T13:33:52.762Z,3744.00
2024-04-30T13:34:52.740Z,3772.00
2024-04-30T13:35:52.715Z,3804.00
2024-04-30T13:36:52.751Z,3808.00
2024-04-30T13:37:52.726Z,3824.00
2024-04-30T13:38:52.680Z,3812.00
2024-04-30T13:39:52.693Z,3832.00
2024-04-30T13:40:52.699Z,3832.00
2024-04-30T13:41:57.702Z,3816.00
2024-04-30T13:42:52.684Z,3844.00
2024-04-30T13:43:52.698Z,3820.00
2024-04-30T13:44:52.636Z,3816.00
2024-04-30T13:45:54.491Z,3772.00
2024-04-30T13:46:52.637Z,3732.00
2024-04-30T13:47:52.660Z,3716.00
2024-04-30T13:48:52.642Z,3692.00
2024-04-30T13:49:52.611Z,3696.00
2024-04-30T13:50:52.579Z,3684.00
2024-04-30T13:51:52.532Z,3680.00
2024-04-30T13:52:52.568Z,3696.00
2024-04-30T13:53:52.519Z,3676.00
2024-04-30T13:54:57.533Z,3680.00
2024-04-30T13:55:52.589Z,3672.00
2024-04-30T13:56:52.521Z,3676.00
2024-04-30T13:57:52.514Z,3680.00
2024-04-30T13:58:52.449Z,3728.00
2024-04-30T13:59:52.443Z,3828.00
2024-04-30T14:00:52.462Z,3876.00
2024-04-30T14:01:52.532Z,3920.00
2024-04-30T14:02:52.439Z,3936.00
2024-04-30T14:03:52.746Z,3928.00
2024-04-30T14:04:52.486Z,3912.00
2024-04-30T14:05:52.437Z,3936.00
2024-04-30T14:06:52.381Z,3940.00
2024-04-30T14:07:57.373Z,3920.00
2024-04-30T14:08:52.379Z,3960.00
2024-04-30T14:09:52.360Z,4000.00
2024-04-30T14:10:52.449Z,4036.00
2024-04-30T14:11:52.344Z,4068.00
2024-04-30T14:12:52.304Z,4116.00
2024-04-30T14:13:52.313Z,4116.00
2024-04-30T14:14:52.300Z,4168.00
2024-04-30T14:15:52.282Z,4124.00
2024-04-30T14:16:52.280Z,4128.00
2024-04-30T14:17:52.277Z,4168.00
2024-04-30T14:18:52.254Z,4184.00
2024-04-30T14:19:52.389Z,4112.00
2024-04-30T14:20:57.243Z,4092.00
2024-04-30T14:21:52.194Z,4056.00
2024-04-30T14:22:52.224Z,4104.00
2024-04-30T14:23:52.190Z,4056.00
2024-04-30T14:24:52.201Z,4028.00
2024-04-30T14:25:52.200Z,3896.00
2024-04-30T14:26:52.158Z,3668.00
2024-04-30T14:27:52.128Z,3628.00
2024-04-30T14:28:52.151Z,3520.00
2024-04-30T14:29:52.133Z,3244.00
2024-04-30T14:30:52.096Z,2900.00
2024-04-30T14:31:57.167Z,2808.00
2024-04-30T14:32:52.128Z,2748.00
2024-04-30T14:33:52.093Z,2940.00
2024-04-30T14:34:52.121Z,3032.00
2024-04-30T14:35:52.170Z,2952.00
2024-04-30T14:36:52.097Z,2936.00
2024-04-30T14:37:52.083Z,2864.00
2024-04-30T14:38:52.003Z,2812.00
2024-04-30T14:39:51.999Z,2772.00
2024-04-30T14:40:52.025Z,2736.00
2024-04-30T14:41:52.011Z,2776.00
2024-04-30T14:42:51.986Z,2728.00
2024-04-30T14:43:51.951Z,2732.00
2024-04-30T14:44:56.960Z,2732.00
2024-04-30T14:45:51.954Z,2704.00
2024-04-30T14:46:51.992Z,2692.00
2024-04-30T14:47:52.038Z,2664.00
2024-04-30T14:48:52.076Z,2660.00
2024-04-30T14:49:51.941Z,2628.00
2024-04-30T14:50:51.883Z,2612.00
2024-04-30T14:51:51.856Z,2624.00
2024-04-30T14:52:51.929Z,2660.00
2024-04-30T14:53:51.846Z,2648.00
2024-04-30T14:54:51.855Z,2636.00
2024-04-30T14:55:51.818Z,2632.00
2024-04-30T14:56:54.061Z,2612.00
2024-04-30T14:57:56.810Z,2592.00
2024-04-30T14:58:51.818Z,2572.00
2024-04-30T14:59:51.782Z,2540.00
2024-04-30T15:00:51.886Z,2500.00
2024-04-30T15:01:51.942Z,2504.00
2024-04-30T15:02:51.806Z,2464.00
2024-04-30T15:03:51.774Z,2504.00
2024-04-30T15:04:51.754Z,2496.00
2024-04-30T15:05:51.718Z,2456.00
2024-04-30T15:06:51.718Z,2448.00
2024-04-30T15:07:51.730Z,2420.00
2024-04-30T15:08:56.702Z,2392.00
2024-04-30T15:09:51.671Z,2364.00
2024-04-30T15:10:51.714Z,2316.00
2024-04-30T15:11:51.729Z,2328.00
2024-04-30T15:12:51.653Z,2340.00
2024-04-30T15:13:51.642Z,2332.00
2024-04-30T15:14:51.600Z,2312.00
2024-04-30T15:15:51.598Z,2308.00
2024-04-30T15:16:51.909Z,2280.00
2024-04-30T15:17:51.680Z,2264.00
2024-04-30T15:18:51.565Z,2248.00
2024-04-30T15:19:56.592Z,2244.00
2024-04-30T15:20:51.546Z,2224.00
2024-04-30T15:21:51.564Z,2208.00
2024-04-30T15:22:51.651Z,2212.00
2024-04-30T15:23:51.506Z,2200.00
2024-04-30T15:24:51.516Z,2204.00
2024-04-30T15:25:51.529Z,2172.00
2024-04-30T15:26:51.464Z,2184.00
2024-04-30T15:27:51.528Z,2168.00
2024-04-30T15:28:51.538Z,2140.00
2024-04-30T15:29:51.434Z,2108.00
2024-04-30T15:30:56.446Z,2072.00
2024-04-30T15:31:51.452Z,2024.00
2024-04-30T15:32:51.465Z,2024.00
2024-04-30T15:33:51.489Z,2024.00
2024-04-30T15:34:51.419Z,2024.00
2024-04-30T15:35:51.365Z,1908.00
2024-04-30T15:36:51.344Z,1904.00
2024-04-30T15:37:51.368Z,1920.00
2024-04-30T15:38:51.346Z,1944.00
2024-04-30T15:39:51.336Z,1932.00
2024-04-30T15:40:51.375Z,1984.00
2024-04-30T15:41:51.315Z,2032.00
2024-04-30T15:42:51.283Z,2084.00
2024-04-30T15:43:56.293Z,2160.00
2024-04-30T15:44:51.280Z,2136.00
2024-04-30T15:45:51.252Z,2120.00
2024-04-30T15:46:51.293Z,2088.00
2024-04-30T15:47:51.338Z,2104.00
2024-04-30T15:48:51.360Z,2032.00
2024-04-30T15:49:51.231Z,1908.00
2024-04-30T15:50:51.232Z,1940.00
2024-04-30T15:51:51.184Z,1960.00
2024-04-30T15:52:51.237Z,1992.00
2024-04-30T15:53:51.158Z,2016.00
2024-04-30T15:54:56.173Z,2140.00
2024-04-30T15:56:00.844Z,2216.00
2024-04-30T15:56:58.320Z,2248.00
2024-04-30T15:57:52.128Z,2240.00
2024-04-30T15:58:51.148Z,2256.00
2024-04-30T15:59:51.098Z,2320.00
2024-04-30T16:00:51.127Z,2324.00
2024-04-30T16:01:51.185Z,2380.00
2024-04-30T16:02:51.142Z,2456.00
2024-04-30T16:03:51.147Z,2500.00
2024-04-30T16:04:51.086Z,2568.00
2024-04-30T16:05:56.050Z,2624.00
2024-04-30T16:06:51.015Z,2636.00
2024-04-30T16:07:51.053Z,2668.00
2024-04-30T16:08:51.043Z,2588.00
2024-04-30T16:09:50.986Z,2484.00
2024-04-30T16:10:51.045Z,2380.00
2024-04-30T16:11:51.031Z,2280.00
2024-04-30T16:12:51.167Z,2156.00
2024-04-30T16:13:51.010Z,2064.00
2024-04-30T16:14:50.971Z,1956.00
2024-04-30T16:15:54.855Z,1916.00
2024-04-30T16:16:56.036Z,1860.00
2024-04-30T16:17:52.231Z,1928.00
2024-04-30T16:18:50.899Z,1976.00
2024-04-30T16:19:50.956Z,2052.00
2024-04-30T16:20:50.864Z,2076.00
2024-04-30T16:21:50.857Z,2160.00
2024-04-30T16:22:50.861Z,2232.00
2024-04-30T16:23:50.819Z,2224.00
2024-04-30T16:24:50.865Z,2228.00
2024-04-30T16:25:50.928Z,2192.00
2024-04-30T16:26:50.796Z,2148.00
2024-04-30T16:27:55.835Z,2136.00
2024-04-30T16:28:50.956Z,2204.00
2024-04-30T16:29:50.812Z,2304.00
2024-04-30T16:30:50.755Z,2384.00
2024-04-30T16:31:50.761Z,2340.00
2024-04-30T16:32:50.886Z,2372.00
2024-04-30T16:33:50.836Z,2372.00
2024-04-30T16:34:50.706Z,2408.00
2024-04-30T16:35:50.704Z,2468.00
2024-04-30T16:36:50.762Z,2468.00
2024-04-30T16:37:50.677Z,2508.00
2024-04-30T16:38:55.734Z,2504.00
2024-04-30T16:39:50.731Z,2516.00
2024-04-30T16:40:50.628Z,2376.00
2024-04-30T16:41:50.628Z,2280.00
2024-04-30T16:42:50.612Z,2340.00
2024-04-30T16:43:50.620Z,2336.00
2024-04-30T16:44:53.364Z,2256.00
2024-04-30T16:45:51.662Z,2144.00
2024-04-30T16:46:50.566Z,2088.00
2024-04-30T16:47:50.645Z,2040.00
2024-04-30T16:48:50.608Z,2004.00
2024-04-30T16:49:55.607Z,1976.00
2024-04-30T16:50:50.536Z,1952.00
2024-04-30T16:51:50.605Z,1888.00
2024-04-30T16:52:50.490Z,1836.00
2024-04-30T16:53:50.482Z,1792.00
2024-04-30T16:54:50.624Z,1760.00
2024-04-30T16:55:50.517Z,1720.00
2024-04-30T16:56:50.468Z,1708.00
2024-04-30T16:57:50.518Z,1708.00
2024-04-30T16:58:50.441Z,1640.00
2024-04-30T16:59:50.437Z,1668.00
2024-04-30T17:00:55.527Z,1688.00